Time;durP1;ratioP1;P1;durP2;ratioP2;P2;SDS_P1;SDS_P2;PMS_P1;PMS_P2;Temp;Humidity;BMP_temperature;BMP_pressure;BME280_temperature;BME280_humidity;BME280_pressure;Samples;Min_cycle;Max_cycle;Signal;HPM_P1;HPM_P2
2021/12/31 00:01:58;;;;;;;0.77;0.50;;;;;;;11.12;100.00;95343.41;4971973;28;20247;-72
2021/12/31 00:04:24;;;;;;;0.40;0.40;;;;;;;11.09;100.00;95349.00;4934269;29;20260;-73
2021/12/31 00:06:50;;;;;;;0.90;0.60;;;;;;;11.05;100.00;95343.66;4917959;29;20190;-72
2021/12/31 00:09:16;;;;;;;1.17;0.50;;;;;;;11.05;100.00;95342.94;4934553;29;20205;-73
2021/12/31 00:11:41;;;;;;;0.40;0.40;;;;;;;11.03;100.00;95345.34;4903087;29;20197;-73
2021/12/31 00:14:07;;;;;;;0.40;0.40;;;;;;;11.07;100.00;95354.16;4938865;29;20331;-73
2021/12/31 00:16:33;;;;;;;0.77;0.40;;;;;;;11.03;100.00;95348.81;4952856;29;20683;-73
2021/12/31 00:18:59;;;;;;;1.60;0.40;;;;;;;10.95;100.00;95351.09;4952946;29;20401;-73
2021/12/31 00:21:32;;;;;;;0.50;0.50;;;;;;;10.86;100.00;95356.50;4926334;29;20690;-72
2021/12/31 00:23:58;;;;;;;1.90;0.57;;;;;;;10.66;100.00;95358.81;4931243;29;20603;-73
2021/12/31 00:26:24;;;;;;;1.13;0.70;;;;;;;10.62;100.00;95358.16;4935867;29;20190;-73
2021/12/31 00:28:49;;;;;;;0.30;0.30;;;;;;;10.54;100.00;95354.19;4957499;28;20205;-72
2021/12/31 00:31:15;;;;;;;0.80;0.60;;;;;;;10.48;100.00;95357.94;4951370;28;20197;-72
2021/12/31 00:33:41;;;;;;;1.30;0.73;;;;;;;10.51;100.00;95360.53;4944549;28;20276;-72
2021/12/31 00:36:07;;;;;;;1.73;0.63;;;;;;;10.49;100.00;95364.91;4953848;28;20240;-72
2021/12/31 00:38:35;;;;;;;1.90;0.67;;;;;;;10.47;100.00;95362.63;4953297;29;20680;-72
2021/12/31 00:41:00;;;;;;;1.40;0.80;;;;;;;10.43;100.00;95363.97;4951501;29;20254;-73
2021/12/31 00:43:26;;;;;;;1.83;0.67;;;;;;;10.51;100.00;95363.28;4952097;29;20632;-72
2021/12/31 00:45:51;;;;;;;0.90;0.70;;;;;;;10.51;100.00;95374.19;4936589;29;20672;-72
2021/12/31 00:48:17;;;;;;;0.50;0.50;;;;;;;10.51;100.00;95354.31;4952490;29;20595;-72
2021/12/31 00:50:43;;;;;;;0.93;0.47;;;;;;;10.56;100.00;95368.16;4948738;29;20616;-72
2021/12/31 00:53:09;;;;;;;0.73;0.53;;;;;;;10.56;100.00;95359.19;4935010;29;20210;-73
2021/12/31 00:55:40;;;;;;;0.80;0.60;;;;;;;10.49;100.00;95356.72;4961009;28;20223;-72
2021/12/31 00:58:07;;;;;;;1.40;0.70;;;;;;;10.40;100.00;95360.16;4942025;28;20185;-72
2021/12/31 01:00:33;;;;;;;0.83;0.60;;;;;;;10.37;100.00;95352.06;4964913;28;20231;-73
2021/12/31 01:02:59;;;;;;;0.90;0.67;;;;;;;10.33;100.00;95362.38;4972520;28;20225;-72
2021/12/31 01:05:25;;;;;;;1.07;0.83;;;;;;;10.25;100.00;95364.59;4936121;28;20468;-73
2021/12/31 01:07:51;;;;;;;0.60;0.60;;;;;;;10.24;100.00;95368.53;4945503;29;20213;-72
2021/12/31 01:10:18;;;;;;;1.13;0.60;;;;;;;10.13;100.00;95373.59;4953163;28;20216;-74
2021/12/31 01:12:47;;;;;;;0.70;0.70;;;;;;;10.16;100.00;95359.06;4949612;29;20210;-72
2021/12/31 01:15:38;;;;;;;1.67;0.80;;;;;;;10.08;100.00;95363.25;4917120;29;20277;-72
2021/12/31 01:20:25;;;;;;;1.27;0.70;;;;;;;10.08;100.00;95370.66;4952632;29;20209;-72
2021/12/31 01:22:51;;;;;;;0.60;0.60;;;;;;;10.02;100.00;95377.84;4944343;28;20599;-72
2021/12/31 01:25:17;;;;;;;1.13;0.90;;;;;;;10.05;100.00;95375.00;4910825;29;20573;-72
2021/12/31 01:27:43;;;;;;;0.70;0.67;;;;;;;10.06;100.00;95370.31;4953490;28;20237;-72
2021/12/31 01:30:13;;;;;;;1.10;1.00;;;;;;;9.95;100.00;95378.09;4960683;28;20197;-73
2021/12/31 01:32:43;;;;;;;2.47;0.87;;;;;;;9.97;100.00;95362.81;4954788;28;20336;-73
2021/12/31 01:35:10;;;;;;;0.83;0.60;;;;;;;9.94;100.00;95366.44;4957599;28;20232;-73
2021/12/31 01:37:35;;;;;;;1.23;0.90;;;;;;;9.94;100.00;95371.13;4962649;28;20197;-73
2021/12/31 01:40:03;;;;;;;0.83;0.83;;;;;;;9.84;100.00;95355.88;4957359;28;20200;-73
2021/12/31 01:42:32;;;;;;;1.50;1.30;;;;;;;9.86;100.00;95362.41;4962963;28;20229;-73
2021/12/31 01:45:04;;;;;;;1.30;1.00;;;;;;;9.76;100.00;95356.13;4915945;29;20226;-73
2021/12/31 01:50:32;;;;;;;1.73;0.97;;;;;;;9.78;100.00;95372.81;4914976;29;20193;-73
2021/12/31 01:52:59;;;;;;;1.23;1.00;;;;;;;9.85;100.00;95373.75;4937797;28;20544;-73
2021/12/31 01:55:30;;;;;;;1.13;0.83;;;;;;;9.76;100.00;95355.34;4923925;29;20233;-73
2021/12/31 01:57:56;;;;;;;1.33;1.00;;;;;;;9.90;100.00;95368.50;4943583;29;20193;-72
2021/12/31 02:00:23;;;;;;;1.87;0.80;;;;;;;9.93;100.00;95372.34;4951294;29;20206;-73
2021/12/31 02:02:50;;;;;;;1.30;0.70;;;;;;;9.96;100.00;95371.44;4949283;28;20220;-73
2021/12/31 02:05:16;;;;;;;1.00;0.87;;;;;;;9.93;100.00;95367.63;4932176;29;20549;-73
2021/12/31 02:07:42;;;;;;;0.80;0.80;;;;;;;9.91;100.00;95358.38;4916489;29;20187;-73
2021/12/31 02:10:09;;;;;;;0.87;0.87;;;;;;;9.82;100.00;95359.06;4948658;29;20194;-73
2021/12/31 02:12:41;;;;;;;1.03;0.83;;;;;;;9.65;100.00;95349.50;4935595;28;20214;-73
2021/12/31 02:15:07;;;;;;;1.00;0.90;;;;;;;9.66;100.00;95368.13;4947214;29;20297;-73
2021/12/31 02:17:33;;;;;;;0.70;0.70;;;;;;;9.68;100.00;95359.50;4952101;28;20198;-73
2021/12/31 02:20:06;;;;;;;1.47;1.03;;;;;;;9.65;100.00;95363.13;4951030;29;20204;-72
2021/12/31 02:22:38;;;;;;;0.90;0.80;;;;;;;9.55;100.00;95361.50;4951172;28;20232;-73
2021/12/31 02:25:04;;;;;;;1.67;1.20;;;;;;;9.54;100.00;95366.19;4934527;29;20289;-73
2021/12/31 02:27:30;;;;;;;0.87;0.80;;;;;;;9.54;100.00;95370.88;4952978;28;20616;-73
2021/12/31 02:29:56;;;;;;;0.93;0.70;;;;;;;9.55;100.00;95366.97;4951764;28;20233;-72
2021/12/31 02:32:22;;;;;;;1.20;1.00;;;;;;;9.56;100.00;95365.75;4952645;28;20244;-73
2021/12/31 02:34:48;;;;;;;1.70;1.40;;;;;;;9.55;100.00;95367.72;4948008;28;20301;-73
2021/12/31 02:37:14;;;;;;;0.80;0.73;;;;;;;9.61;100.00;95362.47;4950977;29;20189;-73
2021/12/31 02:39:42;;;;;;;1.50;1.10;;;;;;;9.59;100.00;95370.31;4951346;29;20200;-73
2021/12/31 02:42:08;;;;;;;1.23;1.00;;;;;;;9.54;100.00;95370.88;4956048;28;20253;-73
2021/12/31 02:44:35;;;;;;;0.80;0.80;;;;;;;9.51;100.00;95353.44;4951174;28;20213;-73
2021/12/31 02:47:04;;;;;;;0.73;0.70;;;;;;;9.61;100.00;95365.19;4950179;29;20202;-73
2021/12/31 02:49:36;;;;;;;2.20;0.60;;;;;;;9.50;100.00;95368.25;4950715;29;20194;-73
2021/12/31 02:52:04;;;;;;;0.93;0.70;;;;;;;9.45;100.00;95366.09;4952394;28;20285;-73
2021/12/31 02:54:32;;;;;;;1.00;1.00;;;;;;;9.46;100.00;95369.59;4950432;28;20257;-73
2021/12/31 02:56:58;;;;;;;1.37;1.00;;;;;;;9.51;100.00;95366.31;4935036;29;20198;-73
2021/12/31 02:59:24;;;;;;;4.73;1.00;;;;;;;9.51;100.00;95364.34;4962567;28;20206;-73
2021/12/31 03:01:50;;;;;;;3.00;0.83;;;;;;;9.42;100.00;95366.19;4934240;29;20226;-73
2021/12/31 03:04:21;;;;;;;2.00;0.83;;;;;;;9.39;100.00;95353.44;4935989;29;20261;-73
2021/12/31 03:06:48;;;;;;;0.93;0.80;;;;;;;9.35;100.00;95350.84;4937563;29;20206;-73
2021/12/31 03:09:16;;;;;;;1.10;1.00;;;;;;;9.37;100.00;95350.41;4954667;29;20263;-73
2021/12/31 03:11:42;;;;;;;0.90;0.87;;;;;;;9.29;100.00;95346.38;4921918;29;20194;-73
2021/12/31 03:14:09;;;;;;;1.47;0.90;;;;;;;9.29;100.00;95358.06;4949677;28;20536;-72
2021/12/31 03:16:35;;;;;;;1.23;0.80;;;;;;;9.22;100.00;95341.91;4953865;29;20699;-72
2021/12/31 03:19:02;;;;;;;0.97;0.80;;;;;;;9.24;100.00;95355.88;4953354;28;20724;-73
2021/12/31 03:21:30;;;;;;;0.67;0.63;;;;;;;9.25;100.00;95351.16;4954797;28;20276;-72
2021/12/31 03:23:58;;;;;;;0.50;0.50;;;;;;;9.20;100.00;95343.53;4954412;28;20222;-73
2021/12/31 03:26:23;;;;;;;0.60;0.60;;;;;;;9.27;100.00;95341.38;4903910;29;20205;-72
2021/12/31 03:28:49;;;;;;;1.33;0.90;;;;;;;9.30;100.00;95351.38;4954864;28;20194;-72
2021/12/31 03:31:15;;;;;;;0.60;0.60;;;;;;;9.27;100.00;95351.50;4968665;28;20216;-72
2021/12/31 03:33:41;;;;;;;1.33;1.00;;;;;;;9.29;100.00;95349.88;4972163;28;20674;-73
2021/12/31 03:36:07;;;;;;;0.80;0.80;;;;;;;9.29;100.00;95344.44;4935684;29;20435;-72
2021/12/31 03:38:32;;;;;;;1.53;0.80;;;;;;;9.17;100.00;95345.19;4934616;29;20228;-72
2021/12/31 03:40:59;;;;;;;0.60;0.60;;;;;;;9.17;100.00;95342.47;4945374;28;20189;-72
2021/12/31 03:43:25;;;;;;;0.53;0.50;;;;;;;9.26;100.00;95339.84;4939095;28;20234;-72
2021/12/31 03:45:51;;;;;;;1.83;0.97;;;;;;;9.27;100.00;95352.28;4951680;28;20193;-72
2021/12/31 03:48:19;;;;;;;0.73;0.73;;;;;;;9.37;100.00;95347.66;4972796;28;20288;-72
2021/12/31 03:50:45;;;;;;;0.70;0.70;;;;;;;9.42;100.00;95345.16;4953898;28;20206;-73
2021/12/31 03:53:14;;;;;;;0.80;0.80;;;;;;;9.40;100.00;95336.66;4941510;28;20228;-72
2021/12/31 03:55:41;;;;;;;0.70;0.70;;;;;;;9.41;100.00;95340.16;4935579;28;20210;-72
2021/12/31 03:58:07;;;;;;;1.73;0.77;;;;;;;9.35;100.00;95323.56;4953042;28;20197;-71
2021/12/31 04:00:33;;;;;;;0.80;0.70;;;;;;;9.40;100.00;95336.66;4961306;28;20189;-71
2021/12/31 04:03:05;;;;;;;1.93;0.70;;;;;;;9.34;100.00;95322.06;4932739;29;20226;-72
2021/12/31 04:05:31;;;;;;;0.70;0.70;;;;;;;9.35;100.00;95320.09;4962978;28;20202;-72
2021/12/31 04:07:57;;;;;;;1.97;0.80;;;;;;;9.25;100.00;95324.69;4952426;29;20196;-72
2021/12/31 04:10:25;;;;;;;0.60;0.60;;;;;;;9.21;100.00;95313.16;4952791;28;20200;-72
2021/12/31 04:12:52;;;;;;;0.60;0.60;;;;;;;9.17;100.00;95319.91;4950285;29;20186;-72
2021/12/31 04:15:18;;;;;;;3.03;0.90;;;;;;;9.16;100.00;95319.13;4933978;29;20214;-72
2021/12/31 04:17:43;;;;;;;0.70;0.70;;;;;;;9.13;100.00;95314.56;4952135;28;20664;-72
2021/12/31 04:20:18;;;;;;;0.83;0.80;;;;;;;9.06;100.00;95308.59;4952828;29;20205;-72
2021/12/31 04:22:52;;;;;;;1.63;0.70;;;;;;;9.03;100.00;95304.00;4953097;28;20229;-73
2021/12/31 04:25:17;;;;;;;0.67;0.60;;;;;;;9.04;100.00;95311.75;4948372;29;20197;-73
2021/12/31 04:27:43;;;;;;;0.70;0.70;;;;;;;9.04;100.00;95314.47;4954730;28;20688;-72
2021/12/31 04:30:10;;;;;;;2.73;0.67;;;;;;;8.97;100.00;95298.34;4964040;28;20194;-72
2021/12/31 04:32:39;;;;;;;0.90;0.70;;;;;;;9.05;100.00;95315.97;4972071;28;20228;-73
2021/12/31 04:35:11;;;;;;;3.03;0.70;;;;;;;9.01;100.00;95300.97;4949326;29;20198;-72
2021/12/31 04:37:43;;;;;;;0.80;0.80;;;;;;;8.98;100.00;95308.03;4952295;29;20190;-72
2021/12/31 04:40:10;;;;;;;0.83;0.70;;;;;;;8.95;100.00;95308.91;4953939;28;20773;-71
2021/12/31 04:42:42;;;;;;;1.23;0.80;;;;;;;8.96;100.00;95307.69;4936658;28;20756;-72
2021/12/31 04:45:10;;;;;;;0.83;0.83;;;;;;;9.00;100.00;95308.38;4934753;29;20218;-72
2021/12/31 04:47:36;;;;;;;1.23;1.00;;;;;;;8.98;100.00;95296.38;4934868;29;20285;-72
2021/12/31 04:50:03;;;;;;;0.50;0.50;;;;;;;8.95;100.00;95292.56;4944657;29;20627;-71
2021/12/31 04:52:29;;;;;;;1.73;1.13;;;;;;;8.95;100.00;95291.78;4934930;29;20193;-73
2021/12/31 04:54:54;;;;;;;0.80;0.80;;;;;;;8.87;100.00;95285.81;4937431;28;20265;-72
2021/12/31 04:57:23;;;;;;;1.20;1.10;;;;;;;8.83;100.00;95282.44;4935331;28;20250;-73
2021/12/31 04:59:49;;;;;;;2.17;1.50;;;;;;;8.85;100.00;95290.16;4964472;28;20264;-73
2021/12/31 05:02:15;;;;;;;1.23;1.20;;;;;;;8.74;100.00;95281.56;4963656;28;20719;-72
2021/12/31 05:04:41;;;;;;;1.10;1.00;;;;;;;8.76;100.00;95285.38;4967519;28;20214;-72
2021/12/31 05:07:09;;;;;;;0.70;0.70;;;;;;;8.70;100.00;95289.84;4952552;29;20206;-72
2021/12/31 05:09:35;;;;;;;0.90;0.67;;;;;;;8.76;100.00;95284.59;4953986;28;20320;-72
2021/12/31 05:12:01;;;;;;;0.63;0.60;;;;;;;8.72;100.00;95281.25;4937146;29;20278;-72
2021/12/31 05:14:27;;;;;;;0.93;0.70;;;;;;;8.73;100.00;95286.25;4934170;29;20891;-72
2021/12/31 05:16:53;;;;;;;0.47;0.47;;;;;;;8.75;100.00;95291.25;4935619;29;20190;-72
2021/12/31 05:19:19;;;;;;;0.63;0.43;;;;;;;8.80;100.00;95286.03;4947640;29;20252;-73
2021/12/31 05:21:45;;;;;;;0.90;0.60;;;;;;;8.76;100.00;95293.53;4951770;29;20212;-72
2021/12/31 05:24:14;;;;;;;1.00;0.70;;;;;;;8.84;100.00;95294.09;4948282;28;20257;-72
2021/12/31 05:26:40;;;;;;;0.70;0.70;;;;;;;8.89;100.00;95288.84;4933937;29;20571;-73
2021/12/31 05:29:05;;;;;;;0.50;0.50;;;;;;;8.92;100.00;95290.72;4949346;28;20224;-72
2021/12/31 05:31:31;;;;;;;0.67;0.67;;;;;;;8.87;100.00;95287.78;4953737;28;20201;-72
2021/12/31 05:33:57;;;;;;;0.90;0.60;;;;;;;8.90;100.00;95292.34;4939076;28;20512;-73
2021/12/31 05:36:25;;;;;;;3.47;0.50;;;;;;;8.86;100.00;95300.63;4949409;29;20238;-73
2021/12/31 05:38:50;;;;;;;0.70;0.57;;;;;;;8.87;100.00;95288.53;4946445;29;20579;-73
2021/12/31 05:41:22;;;;;;;0.70;0.60;;;;;;;8.87;100.00;95282.31;4950688;28;20679;-73
2021/12/31 05:43:48;;;;;;;0.60;0.60;;;;;;;8.90;100.00;95290.38;4949042;28;20238;-73
2021/12/31 05:46:13;;;;;;;1.20;0.53;;;;;;;8.91;100.00;95291.91;4932415;29;20190;-73
2021/12/31 05:48:46;;;;;;;0.40;0.40;;;;;;;8.89;100.00;95294.28;4948523;29;20198;-73
2021/12/31 05:51:12;;;;;;;1.13;0.50;;;;;;;8.83;100.00;95281.66;4934493;29;20224;-72
2021/12/31 05:53:38;;;;;;;0.67;0.67;;;;;;;8.85;100.00;95296.38;4948640;28;20672;-73
2021/12/31 05:56:04;;;;;;;0.57;0.57;;;;;;;8.82;100.00;95293.78;4946373;28;20520;-72
2021/12/31 05:58:29;;;;;;;0.60;0.60;;;;;;;8.79;100.00;95284.50;4953788;28;20201;-73
2021/12/31 06:00:55;;;;;;;2.13;0.60;;;;;;;8.76;100.00;95282.66;4932740;29;20661;-73
2021/12/31 06:03:21;;;;;;;1.30;0.80;;;;;;;8.73;100.00;95280.81;4948295;29;20309;-74
2021/12/31 06:05:50;;;;;;;1.00;0.80;;;;;;;8.68;100.00;95284.06;4936053;29;20210;-73
2021/12/31 06:08:16;;;;;;;0.87;0.70;;;;;;;8.54;100.00;95285.25;4951147;29;20194;-73
2021/12/31 06:10:42;;;;;;;0.50;0.50;;;;;;;8.40;100.00;95282.94;4934268;29;20900;-73
2021/12/31 06:13:10;;;;;;;1.17;0.50;;;;;;;8.30;100.00;95284.03;4951342;28;20505;-73
2021/12/31 06:15:35;;;;;;;0.50;0.50;;;;;;;8.20;100.00;95276.13;4952634;28;20182;-73
2021/12/31 06:18:01;;;;;;;0.50;0.50;;;;;;;8.05;100.00;95281.22;4934221;29;20571;-73
2021/12/31 06:20:28;;;;;;;0.40;0.40;;;;;;;8.04;100.00;95289.81;4951187;29;20254;-73
2021/12/31 06:22:57;;;;;;;0.60;0.60;;;;;;;7.95;100.00;95289.66;4935184;28;20238;-73
2021/12/31 06:25:25;;;;;;;0.90;0.80;;;;;;;7.88;100.00;95289.88;4941456;28;20204;-72
2021/12/31 06:27:51;;;;;;;1.87;0.70;;;;;;;7.83;100.00;95298.53;4935383;29;20198;-73
2021/12/31 06:30:16;;;;;;;1.53;1.10;;;;;;;7.79;100.00;95300.63;4935595;29;20217;-73
2021/12/31 06:32:42;;;;;;;2.43;1.40;;;;;;;7.73;100.00;95296.88;4935697;29;20190;-73
2021/12/31 06:35:08;;;;;;;2.77;2.30;;;;;;;7.69;100.00;95298.91;4936498;29;20820;-73
2021/12/31 06:37:34;;;;;;;3.40;2.60;;;;;;;7.61;100.00;95297.59;4954450;29;20201;-73
2021/12/31 06:40:04;;;;;;;2.67;1.87;;;;;;;7.59;100.00;95294.53;4954389;29;20222;-72
2021/12/31 06:42:34;;;;;;;1.90;1.23;;;;;;;7.45;100.00;95287.50;4929738;29;20297;-72
2021/12/31 06:45:00;;;;;;;0.97;0.63;;;;;;;7.28;100.00;95291.44;4944282;28;20692;-72
2021/12/31 06:47:25;;;;;;;1.57;0.77;;;;;;;7.22;100.00;95298.56;4955551;28;20282;-73
2021/12/31 06:49:51;;;;;;;3.37;1.37;;;;;;;7.26;100.00;95296.53;4955526;28;20186;-73
2021/12/31 06:52:20;;;;;;;1.50;1.40;;;;;;;7.19;100.00;95300.19;4954152;29;20204;-73
2021/12/31 06:54:47;;;;;;;1.73;1.10;;;;;;;7.29;100.00;95292.97;4965529;28;20213;-73
2021/12/31 06:57:13;;;;;;;2.30;1.17;;;;;;;7.14;100.00;95297.22;4970193;28;20204;-72
2021/12/31 06:59:38;;;;;;;1.77;1.20;;;;;;;7.14;100.00;95321.69;4957862;28;20193;-73
2021/12/31 07:02:04;;;;;;;2.23;1.10;;;;;;;7.05;100.00;95310.63;4973757;28;20202;-73
2021/12/31 07:04:30;;;;;;;1.40;1.30;;;;;;;7.07;100.00;95306.31;4950692;28;20225;-73
2021/12/31 07:06:55;;;;;;;1.40;1.30;;;;;;;6.94;100.00;95321.72;4936396;29;20201;-72
2021/12/31 07:09:21;;;;;;;1.67;1.57;;;;;;;6.87;100.00;95302.16;4926224;29;20276;-72
2021/12/31 07:11:47;;;;;;;1.77;1.33;;;;;;;6.79;100.00;95312.38;4954889;29;20201;-73
2021/12/31 07:14:12;;;;;;;1.40;1.30;;;;;;;6.82;100.00;95294.50;4951824;29;20205;-72
2021/12/31 07:16:38;;;;;;;1.43;1.33;;;;;;;6.86;100.00;95300.59;4955128;28;20219;-73
2021/12/31 07:19:04;;;;;;;1.13;1.10;;;;;;;6.70;100.00;95290.47;4919318;29;20202;-72
2021/12/31 07:21:29;;;;;;;0.80;0.80;;;;;;;6.58;100.00;95304.75;4953472;29;20233;-72
2021/12/31 07:23:55;;;;;;;1.97;1.43;;;;;;;6.60;100.00;95307.03;4957804;28;20297;-73
2021/12/31 07:26:21;;;;;;;1.40;1.30;;;;;;;6.60;100.00;95307.03;4965565;28;20196;-73
2021/12/31 07:28:46;;;;;;;3.60;1.90;;;;;;;6.60;100.00;95305.06;4973730;28;20189;-73
2021/12/31 07:31:14;;;;;;;1.50;1.40;;;;;;;6.60;100.00;95301.59;4974492;28;20200;-72
2021/12/31 07:33:41;;;;;;;2.03;1.60;;;;;;;6.56;100.00;95301.69;4942994;28;20246;-72
2021/12/31 07:36:07;;;;;;;3.67;1.90;;;;;;;6.62;100.00;95304.66;4919036;29;20708;-73
2021/12/31 07:38:36;;;;;;;3.93;1.80;;;;;;;6.64;100.00;95286.00;4947733;29;20280;-73
2021/12/31 07:41:03;;;;;;;1.60;1.30;;;;;;;6.61;100.00;95301.19;4958758;28;20247;-73
2021/12/31 07:43:30;;;;;;;0.80;0.80;;;;;;;6.65;100.00;95307.28;4973627;28;20225;-72
2021/12/31 07:45:56;;;;;;;1.53;0.77;;;;;;;6.65;100.00;95309.25;4957648;28;20536;-72
2021/12/31 07:48:23;;;;;;;0.67;0.67;;;;;;;6.61;100.00;95297.69;4972864;28;20198;-73
2021/12/31 07:50:50;;;;;;;2.40;1.10;;;;;;;6.61;100.00;95306.59;4935367;29;20281;-73
2021/12/31 07:53:16;;;;;;;1.97;1.13;;;;;;;6.71;100.00;95305.59;4937370;28;20305;-73
2021/12/31 07:55:42;;;;;;;1.10;0.90;;;;;;;6.68;100.00;95302.97;4964552;28;20200;-72
2021/12/31 07:58:08;;;;;;;1.30;1.20;;;;;;;6.79;100.00;95295.31;4957004;28;20200;-73
2021/12/31 08:00:34;;;;;;;1.77;1.50;;;;;;;6.77;100.00;95306.63;4972884;28;20189;-72
2021/12/31 08:03:01;;;;;;;1.47;1.17;;;;;;;6.93;100.00;95303.94;4968393;28;20244;-73
2021/12/31 08:05:28;;;;;;;1.87;1.57;;;;;;;6.93;100.00;95306.63;4935638;29;20202;-71
2021/12/31 08:07:59;;;;;;;2.30;1.40;;;;;;;6.99;100.00;95307.66;4945623;29;20564;-72
2021/12/31 08:10:25;;;;;;;0.90;0.90;;;;;;;7.01;100.00;95309.94;4953058;29;20289;-71
2021/12/31 08:12:51;;;;;;;0.80;0.80;;;;;;;7.01;100.00;95307.22;4940650;28;20251;-72
2021/12/31 08:15:16;;;;;;;1.30;0.80;;;;;;;6.88;100.00;95317.22;4934256;29;20614;-72
2021/12/31 08:17:42;;;;;;;1.53;0.80;;;;;;;7.04;100.00;95318.00;4953198;29;20208;-72
2021/12/31 08:20:08;;;;;;;1.10;1.00;;;;;;;7.06;100.00;95317.56;4951838;28;20282;-72
2021/12/31 08:22:34;;;;;;;1.17;0.87;;;;;;;7.08;100.00;95324.13;4934213;29;20743;-72
2021/12/31 08:24:59;;;;;;;1.30;1.10;;;;;;;7.26;100.00;95331.88;4959920;28;20213;-72
2021/12/31 08:27:25;;;;;;;2.70;1.17;;;;;;;7.38;100.00;95330.41;4969094;28;20194;-72
2021/12/31 08:29:51;;;;;;;1.30;0.90;;;;;;;7.32;100.00;95327.44;4955984;28;20204;-71
2021/12/31 08:32:17;;;;;;;1.10;1.00;;;;;;;7.37;100.00;95348.66;4968301;28;20193;-71
2021/12/31 08:34:43;;;;;;;0.80;0.80;;;;;;;7.48;100.00;95349.19;4921798;29;20217;-72
2021/12/31 08:37:08;;;;;;;0.90;0.80;;;;;;;7.61;100.00;95358.16;4936774;29;20193;-72
2021/12/31 08:39:34;;;;;;;0.60;0.60;;;;;;;7.67;100.00;95356.44;4935470;29;20278;-71
2021/12/31 08:42:01;;;;;;;1.20;0.83;;;;;;;7.77;100.00;95344.53;4931864;29;20193;-71
2021/12/31 08:44:27;;;;;;;0.80;0.80;;;;;;;7.84;100.00;95343.59;4953780;28;20206;-71
2021/12/31 08:46:53;;;;;;;1.00;0.70;;;;;;;7.91;100.00;95336.00;4953450;29;20273;-72
2021/12/31 08:49:20;;;;;;;0.80;0.77;;;;;;;7.92;100.00;95329.38;4935593;29;20272;-72
2021/12/31 08:51:46;;;;;;;0.70;0.70;;;;;;;7.85;100.00;95334.25;4954222;28;20210;-72
2021/12/31 08:54:12;;;;;;;1.67;0.70;;;;;;;7.87;100.00;95329.13;4956907;28;20221;-72
2021/12/31 08:56:38;;;;;;;0.80;0.80;;;;;;;7.99;100.00;95340.06;4957101;28;20231;-72
2021/12/31 08:59:04;;;;;;;0.60;0.60;;;;;;;7.98;100.00;95327.66;4958723;28;20214;-72
2021/12/31 09:01:30;;;;;;;0.90;0.70;;;;;;;8.02;100.00;95330.28;4948637;29;20205;-71
2021/12/31 09:03:56;;;;;;;0.80;0.60;;;;;;;8.15;100.00;95317.47;4937114;29;20241;-72
2021/12/31 09:06:22;;;;;;;1.90;0.60;;;;;;;8.26;100.00;95324.16;4953908;28;20193;-72
2021/12/31 09:08:48;;;;;;;1.93;0.70;;;;;;;8.29;100.00;95322.56;4953475;29;20182;-72
2021/12/31 09:11:14;;;;;;;0.67;0.50;;;;;;;8.45;100.00;95325.22;4951700;29;20241;-72
2021/12/31 09:13:42;;;;;;;1.97;0.50;;;;;;;8.52;100.00;95314.88;4936441;29;20301;-72
2021/12/31 09:16:11;;;;;;;0.60;0.50;;;;;;;8.48;100.00;95314.19;4953548;29;20186;-71
2021/12/31 09:18:36;;;;;;;1.57;0.67;;;;;;;8.52;100.00;95308.66;4932334;29;20191;-72
2021/12/31 09:21:03;;;;;;;0.50;0.50;;;;;;;8.55;100.00;95296.91;4934246;29;20194;-71
2021/12/31 09:23:28;;;;;;;0.50;0.50;;;;;;;8.63;100.00;95295.50;4936960;28;20237;-72
2021/12/31 09:25:55;;;;;;;0.67;0.67;;;;;;;8.73;100.00;95310.75;4963175;28;20219;-72
2021/12/31 09:28:22;;;;;;;1.20;0.70;;;;;;;8.81;100.00;95312.06;4972130;28;20181;-72
2021/12/31 09:30:48;;;;;;;1.10;0.40;;;;;;;8.76;100.00;95309.88;4971570;28;20189;-72
2021/12/31 09:33:13;;;;;;;1.00;0.93;;;;;;;8.86;100.00;95318.94;4936018;29;20221;-72
2021/12/31 09:35:39;;;;;;;0.73;0.70;;;;;;;9.52;100.00;95313.28;4939304;29;20198;-71
2021/12/31 09:38:08;;;;;;;0.60;0.60;;;;;;;9.24;100.00;95306.81;4935914;29;20182;-73
2021/12/31 09:40:38;;;;;;;1.23;0.90;;;;;;;9.41;100.00;95316.38;4952143;28;20194;-73
2021/12/31 09:43:11;;;;;;;0.87;0.63;;;;;;;9.90;100.00;95310.44;4972190;28;20244;-72
2021/12/31 09:45:38;;;;;;;0.70;0.60;;;;;;;9.79;100.00;95316.25;4963670;28;20205;-72
2021/12/31 09:48:12;;;;;;;3.70;0.70;;;;;;;10.24;100.00;95313.94;4951206;29;20189;-72
2021/12/31 09:50:44;;;;;;;0.60;0.60;;;;;;;9.92;100.00;95321.69;4950140;29;20616;-72
2021/12/31 09:53:14;;;;;;;0.50;0.50;;;;;;;10.57;100.00;95330.69;4950896;28;20206;-72
2021/12/31 09:55:54;;;;;;;1.40;0.93;;;;;;;10.20;100.00;95320.75;4962173;28;20639;-72
2021/12/31 09:58:25;;;;;;;0.87;0.50;;;;;;;10.45;100.00;95321.34;4932157;29;20664;-72
2021/12/31 10:00:57;;;;;;;2.47;0.67;;;;;;;10.26;100.00;95327.13;4915476;29;20837;-72
2021/12/31 10:03:25;;;;;;;0.77;0.70;;;;;;;10.78;100.00;95322.44;4920375;29;20292;-72
2021/12/31 10:05:53;;;;;;;2.77;0.90;;;;;;;10.33;100.00;95330.38;4932570;29;20197;-72
2021/12/31 10:08:31;;;;;;;0.70;0.70;;;;;;;9.90;100.00;95329.53;4926349;29;20772;-73
2021/12/31 10:11:12;;;;;;;0.80;0.80;;;;;;;9.81;100.00;95334.94;4950954;29;20197;-73
2021/12/31 10:13:39;;;;;;;0.57;0.57;;;;;;;9.69;100.00;95334.53;4948051;28;20217;-73
2021/12/31 10:16:17;;;;;;;0.63;0.63;;;;;;;9.69;100.00;95325.56;4937686;29;20205;-73
2021/12/31 10:18:43;;;;;;;0.73;0.73;;;;;;;9.53;100.00;95337.41;4951530;28;20268;-72
2021/12/31 10:21:09;;;;;;;0.77;0.70;;;;;;;9.36;100.00;95322.41;4934492;29;20205;-72
2021/12/31 10:23:40;;;;;;;0.60;0.60;;;;;;;9.32;100.00;95324.47;4936340;28;20233;-72
2021/12/31 10:26:08;;;;;;;1.53;0.73;;;;;;;9.21;100.00;95313.16;4961949;28;20193;-72
2021/12/31 10:28:34;;;;;;;1.23;0.90;;;;;;;9.01;100.00;95311.84;4954280;28;20265;-72
2021/12/31 10:31:11;;;;;;;0.70;0.70;;;;;;;8.90;100.00;95314.13;4970101;28;20221;-72
2021/12/31 10:33:46;;;;;;;0.60;0.60;;;;;;;8.97;100.00;95303.78;4950833;28;20249;-72
2021/12/31 10:36:38;;;;;;;0.77;0.70;;;;;;;9.11;100.00;95297.13;4947301;29;20196;-71
2021/12/31 10:39:25;;;;;;;1.80;0.90;;;;;;;9.28;100.00;95299.28;4950617;29;20785;-71
2021/12/31 10:42:02;;;;;;;2.60;0.83;;;;;;;9.26;100.00;95293.53;4927312;29;20197;-71
2021/12/31 10:44:46;;;;;;;4.33;0.67;;;;;;;8.99;100.00;95297.91;4951186;28;20220;-71
2021/12/31 10:47:19;;;;;;;0.83;0.63;;;;;;;9.00;100.00;95299.41;4951743;28;20194;-72
2021/12/31 10:50:02;;;;;;;0.80;0.60;;;;;;;9.13;100.00;95289.28;4919227;29;20234;-71
2021/12/31 10:52:46;;;;;;;1.73;0.73;;;;;;;9.32;100.00;95291.75;4942479;29;20197;-71
2021/12/31 10:57:44;;;;;;;1.17;0.70;;;;;;;9.64;100.00;95286.00;4954404;28;20268;-72
2021/12/31 11:00:11;;;;;;;0.50;0.50;;;;;;;9.73;100.00;95280.63;4950668;29;20202;-72
2021/12/31 11:02:38;;;;;;;2.20;0.60;;;;;;;9.82;100.00;95279.16;4934310;29;20695;-73
2021/12/31 11:05:05;;;;;;;0.40;0.40;;;;;;;10.05;100.00;95276.78;4950927;29;20194;-74
2021/12/31 11:07:31;;;;;;;0.80;0.50;;;;;;;10.22;100.00;95286.31;4950709;29;20198;-72
2021/12/31 11:10:04;;;;;;;0.80;0.80;;;;;;;10.25;100.00;95271.03;4950096;29;20225;-72
2021/12/31 11:12:34;;;;;;;0.40;0.40;;;;;;;10.36;100.00;95277.63;4939117;29;20216;-72
2021/12/31 11:15:00;;;;;;;3.97;0.90;;;;;;;10.45;100.00;95260.53;4950969;29;20662;-72
2021/12/31 11:17:26;;;;;;;10.37;0.80;;;;;;;10.50;100.00;95257.94;4919544;29;20209;-71
2021/12/31 11:19:52;;;;;;;0.97;0.60;;;;;;;10.52;100.00;95252.81;4953654;29;20185;-71
2021/12/31 11:22:27;;;;;;;2.40;0.63;;;;;;;10.41;100.00;95249.72;4950257;29;20243;-72
2021/12/31 11:24:53;;;;;;;1.07;0.60;;;;;;;10.48;100.00;95243.25;4949276;28;20296;-71
2021/12/31 11:27:44;;;;;;;1.27;0.53;;;;;;;10.46;100.00;95237.47;4961423;28;20278;-72
2021/12/31 11:30:31;;;;;;;0.60;0.50;;;;;;;10.47;100.00;95250.66;4922695;29;20190;-73
2021/12/31 11:33:08;;;;;;;0.57;0.50;;;;;;;10.57;100.00;95240.56;4953469;28;20241;-72
2021/12/31 11:35:44;;;;;;;2.27;0.70;;;;;;;10.71;100.00;95240.75;4937906;29;20236;-72
2021/12/31 11:38:15;;;;;;;1.20;0.60;;;;;;;10.95;100.00;95254.66;4945451;28;20202;-73
2021/12/31 11:40:50;;;;;;;1.00;0.63;;;;;;;10.99;100.00;95250.56;4927054;28;20209;-73
2021/12/31 11:43:25;;;;;;;0.97;0.70;;;;;;;10.99;100.00;95256.03;4956737;28;20617;-73